createdAt,value
2019-06-27T00:01:46.324Z,26.90
2019-06-27T00:04:28.178Z,26.90
2019-06-27T00:07:09.872Z,26.80
2019-06-27T00:09:50.995Z,26.70
2019-06-27T00:12:32.949Z,26.60
2019-06-27T00:15:14.317Z,26.50
2019-06-27T00:17:55.943Z,26.50
2019-06-27T00:20:37.837Z,26.50
2019-06-27T00:23:18.916Z,26.40
2019-06-27T00:26:00.242Z,26.40
2019-06-27T00:28:42.151Z,26.40
2019-06-27T00:31:24.186Z,26.20
2019-06-27T00:34:06.256Z,26.20
2019-06-27T00:36:48.241Z,26.10
2019-06-27T00:39:29.373Z,26.10
2019-06-27T00:42:10.550Z,26.00
2019-06-27T00:44:52.483Z,26.00
2019-06-27T00:47:34.398Z,25.90
2019-06-27T00:50:18.474Z,25.90
2019-06-27T00:53:00.452Z,25.90
2019-06-27T00:55:41.717Z,25.90
2019-06-27T00:58:23.665Z,25.80
2019-06-27T01:00:53.046Z,25.80
2019-06-27T01:03:41.730Z,25.80
2019-06-27T01:06:23.293Z,25.80
2019-06-27T01:09:04.400Z,25.70
2019-06-27T01:11:45.693Z,25.70
2019-06-27T01:14:27.470Z,25.60
2019-06-27T01:17:09.498Z,25.70
2019-06-27T01:19:50.824Z,25.60
2019-06-27T01:22:31.956Z,25.60
2019-06-27T01:25:13.705Z,25.60
2019-06-27T01:27:55.508Z,25.60
2019-06-27T01:30:37.443Z,25.50
2019-06-27T01:33:19.277Z,25.40
2019-06-27T01:36:01.283Z,25.30
2019-06-27T01:38:43.035Z,25.30
2019-06-27T01:41:24.183Z,25.20
2019-06-27T01:44:07.776Z,25.20
2019-06-27T01:46:49.654Z,25.10
2019-06-27T01:49:31.379Z,25.10
2019-06-27T01:52:13.321Z,25.00
2019-06-27T01:54:55.167Z,25.00
2019-06-27T01:57:46.598Z,24.90
2019-06-27T02:00:20.025Z,24.90
2019-06-27T02:03:01.962Z,24.90
2019-06-27T02:05:43.816Z,24.80
2019-06-27T02:08:25.649Z,24.80
2019-06-27T02:11:06.803Z,24.80
2019-06-27T02:13:48.601Z,24.70
2019-06-27T02:16:30.562Z,24.70
2019-06-27T02:19:12.154Z,24.70
2019-06-27T02:21:53.514Z,24.60
2019-06-27T02:24:35.292Z,24.60
2019-06-27T02:27:16.891Z,24.50
2019-06-27T02:29:58.838Z,24.40
2019-06-27T02:32:40.255Z,24.40
2019-06-27T02:35:21.586Z,24.40
2019-06-27T02:38:03.150Z,24.40
2019-06-27T02:40:42.833Z,24.40
2019-06-27T02:43:31.608Z,24.30
2019-06-27T02:46:13.318Z,24.30
2019-06-27T02:48:55.314Z,24.40
2019-06-27T02:51:36.773Z,24.30
2019-06-27T02:54:18.950Z,24.30
2019-06-27T02:57:01.041Z,24.20
2019-06-27T02:59:42.488Z,24.20
2019-06-27T03:02:23.908Z,24.20
2019-06-27T03:05:05.079Z,24.10
2019-06-27T03:07:46.977Z,24.10
2019-06-27T03:10:28.984Z,24.10
2019-06-27T03:13:10.763Z,24.00
2019-06-27T03:15:52.515Z,24.00
2019-06-27T03:18:33.667Z,24.00
2019-06-27T03:21:03.044Z,24.00
2019-06-27T03:23:51.667Z,24.00
2019-06-27T03:26:33.164Z,23.90
2019-06-27T03:29:19.010Z,23.80
2019-06-27T03:31:58.534Z,23.80
2019-06-27T03:34:39.958Z,23.80
2019-06-27T03:37:21.063Z,23.80
2019-06-27T03:40:02.665Z,23.80
2019-06-27T03:42:44.600Z,23.80
2019-06-27T03:45:25.743Z,23.80
2019-06-27T03:48:05.396Z,23.70
2019-06-27T03:50:56.268Z,23.80
2019-06-27T03:53:56.940Z,23.80
2019-06-27T03:56:38.746Z,23.70
2019-06-27T03:59:19.941Z,23.70
2019-06-27T04:02:01.856Z,23.70
2019-06-27T04:04:43.680Z,23.70
2019-06-27T04:07:25.438Z,23.60
2019-06-27T04:10:07.443Z,23.70
2019-06-27T04:12:49.206Z,23.50
2019-06-27T04:15:30.537Z,23.60
2019-06-27T04:18:11.718Z,23.60
2019-06-27T04:20:53.687Z,23.60
2019-06-27T04:23:35.692Z,23.70
2019-06-27T04:26:17.330Z,23.50
2019-06-27T04:28:46.693Z,23.50
2019-06-27T04:31:35.451Z,23.50
2019-06-27T04:34:19.916Z,23.40
2019-06-27T04:36:59.817Z,23.40
2019-06-27T04:39:29.191Z,23.50
2019-06-27T04:42:17.960Z,23.60
2019-06-27T04:44:59.162Z,23.40
2019-06-27T04:47:40.360Z,23.40
2019-06-27T04:50:21.998Z,23.40
2019-06-27T04:53:03.939Z,23.50
2019-06-27T04:55:45.590Z,23.60
2019-06-27T04:58:15.063Z,23.70
2019-06-27T05:01:04.226Z,23.70
2019-06-27T05:03:45.662Z,23.70
2019-06-27T05:06:27.507Z,23.80
2019-06-27T05:09:09.409Z,23.70
2019-06-27T05:11:50.666Z,23.80
2019-06-27T05:14:32.721Z,23.70
2019-06-27T05:17:13.973Z,23.90
2019-06-27T05:19:55.672Z,23.70
2019-06-27T05:22:37.681Z,23.80
2019-06-27T05:25:19.516Z,23.90
2019-06-27T05:28:01.123Z,24.10
2019-06-27T05:30:42.423Z,24.10
2019-06-27T05:33:24.333Z,24.00
2019-06-27T05:36:05.447Z,24.00
2019-06-27T05:38:45.214Z,24.00
2019-06-27T05:41:33.972Z,23.90
2019-06-27T05:44:15.831Z,24.00
2019-06-27T05:46:57.579Z,24.10
2019-06-27T05:49:39.678Z,24.10
2019-06-27T05:52:21.740Z,24.10
2019-06-27T05:55:03.297Z,24.30
2019-06-27T05:57:44.503Z,24.50
2019-06-27T06:00:28.959Z,24.60
2019-06-27T06:03:09.384Z,24.70
2019-06-27T06:05:51.388Z,24.70
2019-06-27T06:08:33.150Z,24.80
2019-06-27T06:11:14.457Z,24.90
2019-06-27T06:13:55.668Z,25.00
2019-06-27T06:16:37.621Z,24.70
2019-06-27T06:19:19.832Z,24.60
2019-06-27T06:22:01.307Z,24.50
2019-06-27T06:24:43.066Z,24.50
2019-06-27T06:27:24.544Z,24.70
2019-06-27T06:30:05.952Z,24.80
2019-06-27T06:32:47.277Z,24.70
2019-06-27T06:35:29.390Z,24.70
2019-06-27T06:38:11.192Z,24.60
2019-06-27T06:40:52.839Z,24.70
2019-06-27T06:43:34.096Z,24.90
2019-06-27T06:46:16.117Z,24.80
2019-06-27T06:48:58.079Z,24.70
2019-06-27T06:51:39.555Z,24.70
2019-06-27T06:54:21.009Z,24.80
2019-06-27T06:57:02.658Z,25.00
2019-06-27T06:59:44.302Z,24.90
2019-06-27T07:02:26.301Z,25.00
2019-06-27T07:05:08.251Z,25.00
2019-06-27T07:07:49.919Z,24.90
2019-06-27T07:10:30.996Z,25.00
2019-06-27T07:13:12.990Z,24.90
2019-06-27T07:15:57.736Z,25.10
2019-06-27T07:18:42.866Z,25.30
2019-06-27T07:21:24.981Z,25.30
2019-06-27T07:24:06.697Z,25.50
2019-06-27T07:26:49.272Z,25.50
2019-06-27T07:29:30.382Z,25.20
2019-06-27T07:32:11.819Z,25.00
2019-06-27T07:34:52.971Z,25.30
2019-06-27T07:37:34.698Z,25.50
2019-06-27T07:40:16.349Z,25.40
2019-06-27T07:42:57.817Z,25.70
2019-06-27T07:45:39.064Z,25.90
2019-06-27T07:48:21.154Z,25.90
2019-06-27T07:51:03.174Z,26.10
2019-06-27T07:53:44.529Z,26.00
2019-06-27T07:56:26.431Z,25.90
2019-06-27T07:59:08.387Z,26.00
2019-06-27T08:01:50.064Z,26.00
2019-06-27T08:04:31.719Z,26.20
2019-06-27T08:07:13.571Z,26.40
2019-06-27T08:09:55.280Z,26.50
2019-06-27T08:12:37.048Z,26.60
2019-06-27T08:18:49.065Z,26.60
2019-06-27T08:21:30.595Z,26.30
2019-06-27T08:24:12.540Z,26.40
2019-06-27T08:26:53.680Z,26.50
2019-06-27T08:29:35.423Z,26.60
2019-06-27T08:32:17.013Z,26.50
2019-06-27T08:34:59.022Z,26.50
2019-06-27T08:37:41.046Z,26.40
2019-06-27T08:40:24.188Z,26.40
2019-06-27T08:43:06.120Z,26.70
2019-06-27T08:45:47.514Z,26.90
2019-06-27T08:48:29.337Z,26.80
2019-06-27T08:51:10.495Z,26.70
2019-06-27T08:53:52.421Z,26.80
2019-06-27T08:56:21.792Z,26.90
2019-06-27T08:59:10.468Z,27.20
2019-06-27T09:02:07.380Z,27.20
2019-06-27T09:04:35.984Z,27.50
2019-06-27T09:07:18.841Z,27.50
2019-06-27T09:09:59.940Z,27.40
2019-06-27T09:12:29.326Z,27.30
2019-06-27T09:15:17.999Z,27.50
2019-06-27T09:17:59.322Z,27.60
2019-06-27T09:20:40.535Z,27.80
2019-06-27T09:23:20.202Z,27.60
2019-06-27T09:26:08.898Z,27.80
2019-06-27T09:28:50.305Z,27.80
2019-06-27T09:31:33.241Z,27.80
2019-06-27T09:34:21.368Z,27.80
2019-06-27T09:37:01.675Z,27.80
2019-06-27T09:39:43.642Z,27.80
2019-06-27T09:42:24.875Z,28.20
2019-06-27T09:45:06.774Z,28.50
2019-06-27T09:47:48.724Z,28.70
2019-06-27T09:50:30.402Z,28.50
2019-06-27T09:53:12.380Z,28.60
2019-06-27T09:55:53.983Z,28.60
2019-06-27T09:58:35.231Z,28.60
2019-06-27T10:01:17.137Z,28.80
2019-06-27T10:03:59.057Z,29.00
2019-06-27T10:06:41.110Z,29.20
2019-06-27T10:09:23.075Z,29.20
2019-06-27T10:12:05.752Z,29.10
2019-06-27T10:14:47.992Z,29.20
2019-06-27T10:17:29.914Z,29.10
2019-06-27T10:20:11.944Z,29.30
2019-06-27T10:22:53.167Z,29.40
2019-06-27T10:25:38.172Z,29.60
2019-06-27T10:28:18.892Z,29.70
2019-06-27T10:31:01.027Z,29.60
2019-06-27T10:33:42.308Z,29.30
2019-06-27T10:36:23.792Z,29.50
2019-06-27T10:39:06.111Z,29.80
2019-06-27T10:41:47.398Z,30.20
2019-06-27T10:44:29.163Z,30.40
2019-06-27T10:47:09.581Z,30.30
2019-06-27T10:49:58.868Z,30.30
2019-06-27T10:52:41.431Z,30.10
2019-06-27T10:55:25.549Z,30.40
2019-06-27T10:58:06.907Z,30.60
2019-06-27T11:00:48.882Z,30.80
2019-06-27T11:03:30.515Z,30.90
2019-06-27T11:06:12.593Z,30.90
2019-06-27T11:08:54.520Z,31.30
2019-06-27T11:11:37.171Z,31.30
2019-06-27T11:14:19.296Z,31.40
2019-06-27T11:20:01.151Z,31.10
2019-06-27T11:22:43.123Z,31.70
2019-06-27T11:25:25.541Z,31.60
2019-06-27T11:28:10.005Z,32.10
2019-06-27T11:30:51.365Z,33.30
2019-06-27T11:33:33.369Z,34.90
2019-06-27T11:36:15.800Z,37.50
2019-06-27T11:38:58.205Z,37.40
2019-06-27T11:41:40.173Z,37.90
2019-06-27T11:44:22.332Z,37.30
2019-06-27T11:47:04.253Z,36.70
2019-06-27T11:49:46.425Z,37.80
2019-06-27T11:52:28.222Z,39.20
2019-06-27T11:55:10.392Z,40.30
2019-06-27T11:57:56.480Z,39.00
2019-06-27T12:00:36.369Z,38.30
2019-06-27T12:03:18.285Z,39.20
2019-06-27T12:06:00.371Z,39.00
2019-06-27T12:08:42.529Z,39.40
2019-06-27T12:11:25.764Z,39.70
2019-06-27T12:14:08.059Z,40.20
2019-06-27T12:16:50.214Z,40.70
2019-06-27T12:19:31.765Z,39.60
2019-06-27T12:22:14.316Z,40.10
2019-06-27T12:24:56.065Z,39.50
2019-06-27T12:27:37.866Z,39.00
2019-06-27T12:30:19.706Z,39.20
2019-06-27T12:33:01.833Z,39.20
2019-06-27T12:35:43.519Z,40.60
2019-06-27T12:38:25.809Z,40.80
2019-06-27T12:41:07.429Z,40.40
2019-06-27T12:43:49.504Z,40.30
2019-06-27T12:46:32.039Z,41.30
2019-06-27T12:49:13.732Z,42.00
2019-06-27T12:51:55.805Z,42.60
2019-06-27T12:54:38.101Z,41.90
2019-06-27T12:57:19.922Z,42.00
2019-06-27T13:00:02.333Z,42.30
2019-06-27T13:02:44.715Z,42.90
2019-06-27T13:05:26.788Z,42.20
2019-06-27T13:08:08.484Z,43.30
2019-06-27T13:10:50.576Z,41.90
2019-06-27T13:13:33.558Z,41.50
2019-06-27T13:16:15.830Z,41.50
2019-06-27T13:18:57.783Z,42.30
2019-06-27T13:21:39.696Z,41.30
2019-06-27T13:24:21.298Z,41.20
2019-06-27T13:27:03.842Z,41.90
2019-06-27T13:29:45.379Z,42.90
2019-06-27T13:32:27.578Z,43.30
2019-06-27T13:35:09.276Z,42.30
2019-06-27T13:37:38.936Z,42.50
2019-06-27T13:40:27.938Z,42.30
2019-06-27T13:43:09.694Z,43.00
2019-06-27T13:45:51.511Z,42.70
2019-06-27T13:48:33.466Z,42.80
2019-06-27T13:51:15.081Z,42.20
2019-06-27T13:53:56.670Z,42.40
2019-06-27T13:56:38.194Z,42.60
2019-06-27T13:59:20.480Z,42.70
2019-06-27T14:02:02.698Z,42.20
2019-06-27T14:04:56.498Z,41.90
2019-06-27T14:07:27.559Z,42.60
2019-06-27T14:10:09.334Z,42.50
2019-06-27T14:12:51.115Z,41.70
2019-06-27T14:15:33.196Z,41.20
2019-06-27T14:18:18.231Z,42.50
2019-06-27T14:20:58.059Z,43.20
2019-06-27T14:23:40.135Z,44.20
2019-06-27T14:26:22.220Z,44.50
2019-06-27T14:29:05.165Z,44.10
2019-06-27T14:31:47.115Z,43.70
2019-06-27T14:34:29.205Z,43.00
2019-06-27T14:37:11.306Z,43.70
2019-06-27T14:39:56.442Z,43.20
2019-06-27T14:42:37.036Z,42.60
2019-06-27T14:45:18.684Z,43.40
2019-06-27T14:48:00.865Z,42.90
2019-06-27T14:50:42.799Z,43.40
2019-06-27T14:53:24.302Z,44.20
2019-06-27T14:56:06.085Z,44.20
2019-06-27T14:58:47.996Z,43.30
2019-06-27T15:01:29.863Z,44.20
2019-06-27T15:03:59.528Z,43.70
2019-06-27T15:06:48.498Z,43.90
2019-06-27T15:09:30.595Z,44.20
2019-06-27T15:12:12.550Z,43.90
2019-06-27T15:14:54.535Z,43.80
2019-06-27T15:17:36.549Z,43.80
2019-06-27T15:20:18.236Z,43.90
2019-06-27T15:23:00.061Z,45.50
2019-06-27T15:25:41.757Z,44.00
2019-06-27T15:28:23.768Z,43.70
2019-06-27T15:31:05.795Z,44.20
2019-06-27T15:33:47.761Z,43.20
2019-06-27T15:36:29.860Z,42.20
2019-06-27T15:39:12.144Z,42.30
2019-06-27T15:41:54.628Z,43.10
2019-06-27T15:44:36.553Z,43.80
2019-06-27T15:47:18.437Z,42.70
2019-06-27T15:50:00.288Z,42.70
2019-06-27T15:52:42.551Z,42.80
2019-06-27T15:55:24.635Z,43.40
2019-06-27T15:58:06.444Z,44.70
2019-06-27T16:00:48.172Z,44.80
2019-06-27T16:03:29.883Z,45.20
2019-06-27T16:06:14.898Z,45.00
2019-06-27T16:08:54.714Z,45.00
2019-06-27T16:11:36.793Z,44.00
2019-06-27T16:14:18.735Z,44.10
2019-06-27T16:17:00.642Z,44.10
2019-06-27T16:19:42.679Z,44.60
2019-06-27T16:22:24.984Z,43.70
2019-06-27T16:25:07.038Z,43.40
2019-06-27T16:27:49.045Z,43.60
2019-06-27T16:30:31.081Z,44.20
2019-06-27T16:33:13.137Z,44.20
2019-06-27T16:35:55.187Z,44.50
2019-06-27T16:38:37.132Z,44.10
2019-06-27T16:41:19.016Z,43.90
2019-06-27T16:44:00.991Z,43.70
2019-06-27T16:46:43.268Z,43.70
2019-06-27T16:49:25.460Z,44.00
2019-06-27T16:52:07.229Z,42.00
2019-06-27T16:54:49.470Z,43.50
2019-06-27T16:57:31.822Z,43.50
2019-06-27T17:00:14.012Z,44.00
2019-06-27T17:02:55.447Z,43.40
2019-06-27T17:05:35.422Z,43.20
2019-06-27T17:08:26.461Z,42.80
2019-06-27T17:10:58.641Z,42.20
2019-06-27T17:13:48.311Z,42.30
2019-06-27T17:16:30.228Z,42.50
2019-06-27T17:19:12.269Z,40.70
2019-06-27T17:21:54.480Z,41.00
2019-06-27T17:24:36.459Z,41.10
2019-06-27T17:27:18.271Z,40.40
2019-06-27T17:29:59.946Z,40.90
2019-06-27T17:32:42.074Z,40.40
2019-06-27T17:35:24.414Z,39.40
2019-06-27T17:38:06.429Z,38.70
2019-06-27T17:40:49.059Z,37.80
2019-06-27T17:43:31.155Z,36.70
2019-06-27T17:46:13.142Z,35.90
2019-06-27T17:48:55.796Z,35.00
2019-06-27T17:51:37.734Z,34.20
2019-06-27T17:54:20.922Z,33.50
2019-06-27T17:57:03.288Z,33.20
2019-06-27T17:59:45.328Z,32.90
2019-06-27T18:02:27.231Z,33.00
2019-06-27T18:05:09.202Z,32.60
2019-06-27T18:07:51.599Z,32.30
2019-06-27T18:10:34.252Z,32.00
2019-06-27T18:13:16.447Z,31.80
2019-06-27T18:15:58.455Z,31.80
2019-06-27T18:18:40.449Z,31.70
2019-06-27T18:21:22.355Z,31.50
2019-06-27T18:24:04.281Z,31.10
2019-06-27T18:26:46.246Z,31.00
2019-06-27T18:29:28.044Z,30.70
2019-06-27T18:32:09.924Z,30.70
2019-06-27T18:34:52.324Z,30.80
2019-06-27T18:37:34.397Z,30.90
2019-06-27T18:40:16.181Z,30.60
2019-06-27T18:42:57.930Z,30.30
2019-06-27T18:45:39.165Z,30.20
2019-06-27T18:48:20.717Z,30.20
2019-06-27T18:51:03.261Z,30.20
2019-06-27T18:53:45.907Z,30.10
2019-06-27T18:56:27.858Z,29.80
2019-06-27T18:59:09.335Z,29.50
2019-06-27T19:01:51.305Z,29.30
2019-06-27T19:04:33.036Z,29.30
2019-06-27T19:07:14.807Z,29.10
2019-06-27T19:09:56.339Z,29.00
2019-06-27T19:12:38.269Z,29.00
2019-06-27T19:15:20.635Z,28.80
2019-06-27T19:18:02.620Z,28.70
2019-06-27T19:20:49.496Z,28.60
2019-06-27T19:23:32.511Z,28.50
2019-06-27T19:26:13.831Z,28.40
2019-06-27T19:28:55.393Z,28.30
2019-06-27T19:31:36.603Z,28.20
2019-06-27T19:34:18.538Z,28.10
2019-06-27T19:36:48.022Z,27.90
2019-06-27T19:39:36.825Z,27.80
2019-06-27T19:42:18.798Z,27.80
2019-06-27T19:45:00.769Z,27.60
2019-06-27T19:47:42.554Z,27.50
2019-06-27T19:50:24.311Z,27.40
2019-06-27T19:53:05.863Z,27.40
2019-06-27T19:55:47.585Z,27.20
2019-06-27T19:58:28.806Z,27.10
2019-06-27T20:01:10.254Z,27.10
2019-06-27T20:03:52.146Z,27.00
2019-06-27T20:06:33.472Z,26.90
2019-06-27T20:09:14.646Z,26.70
2019-06-27T20:11:56.690Z,26.70
2019-06-27T20:14:38.054Z,26.70
2019-06-27T20:17:19.970Z,26.60
2019-06-27T20:20:01.844Z,26.50
2019-06-27T20:22:43.552Z,26.50
2019-06-27T20:25:25.399Z,26.40
2019-06-27T20:28:07.254Z,26.30
2019-06-27T20:30:48.391Z,26.20
2019-06-27T20:33:29.695Z,26.20
2019-06-27T20:36:11.805Z,26.10
2019-06-27T20:38:55.875Z,26.00
2019-06-27T20:41:37.306Z,25.90
2019-06-27T20:44:18.783Z,25.90
2019-06-27T20:47:00.757Z,25.80
2019-06-27T20:49:42.329Z,25.70
2019-06-27T20:52:23.594Z,25.70
2019-06-27T20:55:05.229Z,25.70
2019-06-27T20:57:46.594Z,25.60
2019-06-27T21:00:28.769Z,25.50
2019-06-27T21:03:09.891Z,25.50
2019-06-27T21:05:51.858Z,25.40
2019-06-27T21:08:33.297Z,25.40
2019-06-27T21:11:15.281Z,25.30
2019-06-27T21:13:56.832Z,25.30
2019-06-27T21:16:38.885Z,25.30
2019-06-27T21:19:20.662Z,25.30
2019-06-27T21:22:01.782Z,25.20
2019-06-27T21:24:43.778Z,25.20
2019-06-27T21:27:25.270Z,25.20
2019-06-27T21:30:07.137Z,25.10
2019-06-27T21:32:49.298Z,25.20
2019-06-27T21:35:31.385Z,25.10
2019-06-27T21:38:13.300Z,25.00
2019-06-27T21:40:58.167Z,25.00
2019-06-27T21:43:37.733Z,24.90
2019-06-27T21:46:26.435Z,24.90
2019-06-27T21:49:11.104Z,24.80
2019-06-27T21:51:50.706Z,24.80
2019-06-27T21:54:31.900Z,24.80
2019-06-27T21:57:13.405Z,24.70
2019-06-27T21:59:54.870Z,24.70
2019-06-27T22:02:36.141Z,24.70
2019-06-27T22:05:17.896Z,24.70
2019-06-27T22:07:59.296Z,24.70
2019-06-27T22:10:41.156Z,24.70
2019-06-27T22:13:22.354Z,24.70
2019-06-27T22:16:04.328Z,24.60
2019-06-27T22:18:46.224Z,24.60
2019-06-27T22:21:27.834Z,24.50
2019-06-27T22:24:09.048Z,24.30
2019-06-27T22:26:51.110Z,24.10
2019-06-27T22:29:32.756Z,23.90
2019-06-27T22:32:14.501Z,23.80
2019-06-27T22:34:56.295Z,23.60
2019-06-27T22:40:56.437Z,23.40
2019-06-27T22:43:57.254Z,23.30
2019-06-27T22:46:58.137Z,23.10
2019-06-27T22:49:38.723Z,22.90
2019-06-27T22:52:39.084Z,22.60
2019-06-27T22:55:24.607Z,22.50
2019-06-27T22:58:05.812Z,22.40
2019-06-27T23:00:47.543Z,22.40
2019-06-27T23:03:29.060Z,22.30
2019-06-27T23:06:11.003Z,22.30
2019-06-27T23:08:52.954Z,22.20
2019-06-27T23:11:34.868Z,22.20
2019-06-27T23:14:19.468Z,22.10
2019-06-27T23:17:01.052Z,22.10
2019-06-27T23:19:42.941Z,22.00
2019-06-27T23:22:24.976Z,22.00
2019-06-27T23:25:06.192Z,22.00
2019-06-27T23:27:48.044Z,21.80
2019-06-27T23:30:29.312Z,21.70
2019-06-27T23:33:09.014Z,21.70
2019-06-27T23:35:57.694Z,21.80
2019-06-27T23:38:39.444Z,21.90
2019-06-27T23:41:20.750Z,21.90
2019-06-27T23:44:02.652Z,21.90
2019-06-27T23:46:44.510Z,21.80
2019-06-27T23:49:26.006Z,21.60
2019-06-27T23:52:07.832Z,21.40
2019-06-27T23:54:49.765Z,21.40
2019-06-27T23:57:31.654Z,21.40
